Time;durP1;ratioP1;P1;durP2;ratioP2;P2;SDS_P1;SDS_P2;PMS_P1;PMS_P2;Temp;Humidity;BMP_temperature;BMP_pressure;BME280_temperature;BME280_humidity;BME280_pressure;Samples;Min_cycle;Max_cycle;Signal;HPM_P1;HPM_P2
2023/06/11 00:01:08;;;;;;;2.60;1.83;;;15.40;99.90;;;;;;5055743;28;20458;-73
2023/06/11 00:03:40;;;;;;;4.17;2.83;;;15.30;99.90;;;;;;5055703;28;20177;-73
2023/06/11 00:06:06;;;;;;;1.93;1.50;;;15.30;99.90;;;;;;5055368;28;20949;-72
2023/06/11 00:08:32;;;;;;;1.00;1.00;;;15.30;99.90;;;;;;5055457;28;20466;-73
2023/06/11 00:10:58;;;;;;;1.73;1.37;;;15.30;99.90;;;;;;5055468;28;20408;-74
2023/06/11 00:13:23;;;;;;;1.53;1.43;;;15.30;99.90;;;;;;5055486;28;20257;-72
2023/06/11 00:15:49;;;;;;;1.77;1.33;;;15.20;99.90;;;;;;5055258;28;20190;-72
2023/06/11 00:18:16;;;;;;;3.03;1.67;;;;;;;;;;5055397;28;20516;-72
2023/06/11 00:20:43;;;;;;;1.77;1.67;;;15.10;99.90;;;;;;5055399;28;20191;-72
2023/06/11 00:23:09;;;;;;;1.83;1.73;;;15.20;99.90;;;;;;5055378;28;20406;-74
2023/06/11 00:25:35;;;;;;;1.90;1.80;;;15.30;99.90;;;;;;5054948;28;20412;-75
2023/06/11 00:28:00;;;;;;;1.60;1.50;;;15.30;99.90;;;;;;5055235;28;20402;-74
2023/06/11 00:30:26;;;;;;;1.93;1.50;;;15.30;99.90;;;;;;5055187;28;20466;-71
2023/06/11 00:32:52;;;;;;;4.17;2.30;;;15.20;99.90;;;;;;5055094;28;20181;-72
2023/06/11 00:35:17;;;;;;;1.00;0.97;;;15.20;99.90;;;;;;5054792;28;20215;-74
2023/06/11 00:37:43;;;;;;;1.97;1.87;;;15.20;99.90;;;;;;5054803;28;20188;-72
2023/06/11 00:40:09;;;;;;;1.20;1.20;;;15.20;99.90;;;;;;5054907;28;20176;-72
2023/06/11 00:42:36;;;;;;;0.70;0.70;;;15.20;99.90;;;;;;5054963;28;20472;-74
2023/06/11 00:45:05;;;;;;;1.53;1.43;;;15.20;99.90;;;;;;5054819;28;20435;-73
2023/06/11 00:47:31;;;;;;;1.60;1.30;;;15.10;99.90;;;;;;5054714;28;20461;-71
2023/06/11 00:49:57;;;;;;;2.80;2.40;;;15.10;99.90;;;;;;5054606;28;20430;-74
2023/06/11 00:52:23;;;;;;;1.93;1.83;;;15.10;99.90;;;;;;5054995;28;20416;-73
2023/06/11 00:54:48;;;;;;;1.27;1.17;;;15.20;99.90;;;;;;5054593;28;20258;-72
2023/06/11 00:57:17;;;;;;;2.30;1.80;;;15.20;99.90;;;;;;5054595;28;20175;-74
2023/06/11 00:59:47;;;;;;;1.93;1.83;;;15.20;99.90;;;;;;5054843;28;20175;-74
2023/06/11 01:02:21;;;;;;;3.00;1.77;;;15.20;99.90;;;;;;5054559;28;20445;-72
2023/06/11 01:04:51;;;;;;;1.53;1.43;;;14.90;99.90;;;;;;5054685;28;20407;-71
2023/06/11 01:07:18;;;;;;;4.47;2.77;;;15.10;99.90;;;;;;5054168;28;20456;-74
2023/06/11 01:09:45;;;;;;;1.30;1.20;;;15.10;99.90;;;;;;5054444;28;20400;-73
2023/06/11 01:12:12;;;;;;;1.10;1.10;;;15.20;99.90;;;;;;5054307;28;20781;-74
2023/06/11 01:14:38;;;;;;;1.53;1.43;;;15.30;99.90;;;;;;5054421;28;20428;-73
2023/06/11 01:17:15;;;;;;;1.60;1.50;;;15.10;99.90;;;;;;5054017;28;20498;-71
2023/06/11 01:20:08;;;;;;;2.13;2.03;;;15.10;99.90;;;;;;5054229;28;20410;-71
2023/06/11 01:23:06;;;;;;;3.87;1.70;;;15.10;99.90;;;;;;5054237;28;20817;-72
2023/06/11 01:25:48;;;;;;;4.00;2.27;;;15.10;99.90;;;;;;5054061;28;20511;-74
2023/06/11 01:28:27;;;;;;;3.93;2.60;;;15.10;99.90;;;;;;5054092;28;20413;-73
2023/06/11 01:30:55;;;;;;;2.10;1.30;;;15.00;99.90;;;;;;5054245;28;20403;-72
2023/06/11 01:33:24;;;;;;;2.37;1.50;;;15.00;99.90;;;;;;5053862;28;20416;-72
2023/06/11 01:35:52;;;;;;;5.27;3.93;;;15.00;99.90;;;;;;5053702;28;20428;-73
2023/06/11 01:38:21;;;;;;;1.70;1.60;;;15.00;99.90;;;;;;5053853;28;20412;-73
2023/06/11 01:40:47;;;;;;;3.23;2.17;;;14.90;99.90;;;;;;5053651;28;20510;-74
2023/06/11 01:43:13;;;;;;;1.90;1.80;;;14.90;99.90;;;;;;5053889;28;20451;-73
2023/06/11 01:45:39;;;;;;;2.50;2.13;;;14.90;99.90;;;;;;5053537;28;20446;-73
2023/06/11 01:48:05;;;;;;;2.20;2.10;;;14.80;99.90;;;;;;5053601;28;20430;-75
2023/06/11 01:50:31;;;;;;;1.20;1.10;;;14.80;99.90;;;;;;5053628;28;20175;-72
2023/06/11 01:52:56;;;;;;;2.20;1.63;;;14.90;99.90;;;;;;5053789;28;20464;-74
2023/06/11 01:55:22;;;;;;;2.60;1.60;;;14.90;99.90;;;;;;5053422;28;20566;-73
2023/06/11 01:57:48;;;;;;;1.63;1.53;;;14.90;99.90;;;;;;5053626;28;20166;-74
2023/06/11 02:00:14;;;;;;;1.47;1.20;;;14.80;99.90;;;;;;5053713;28;20168;-73
2023/06/11 02:02:43;;;;;;;1.83;1.43;;;14.80;99.90;;;;;;5053471;28;20495;-74
2023/06/11 02:05:09;;;;;;;1.50;1.50;;;14.80;99.90;;;;;;5053587;28;20911;-74
2023/06/11 02:07:35;;;;;;;1.77;1.60;;;14.80;99.90;;;;;;5053321;28;20412;-73
2023/06/11 02:10:00;;;;;;;2.63;2.43;;;14.80;99.90;;;;;;5053505;28;20909;-72
2023/06/11 02:12:26;;;;;;;3.80;2.10;;;;;;;;;;5053605;28;20466;-74
2023/06/11 02:14:52;;;;;;;5.67;3.20;;;14.90;99.90;;;;;;5053471;28;20286;-73
2023/06/11 02:17:18;;;;;;;2.47;1.63;;;15.00;99.90;;;;;;5052492;28;20492;-74
2023/06/11 02:19:43;;;;;;;1.33;1.23;;;15.10;99.90;;;;;;5053304;28;20576;-74
2023/06/11 02:22:09;;;;;;;2.27;2.17;;;15.00;99.90;;;;;;5053413;28;20218;-75
2023/06/11 02:24:35;;;;;;;1.33;1.23;;;15.20;99.90;;;;;;5053246;28;20164;-72
2023/06/11 02:27:00;;;;;;;1.37;1.27;;;15.00;99.90;;;;;;5053100;28;20245;-72
2023/06/11 02:29:26;;;;;;;1.63;1.53;;;15.10;99.90;;;;;;5053410;28;20232;-71
2023/06/11 02:31:52;;;;;;;2.70;2.50;;;;;;;;;;5053312;28;20174;-74
2023/06/11 02:34:18;;;;;;;1.80;1.50;;;15.00;99.90;;;;;;5053154;28;20581;-72
2023/06/11 02:36:43;;;;;;;1.50;1.40;;;15.10;99.90;;;;;;5052888;28;20433;-74
2023/06/11 02:39:09;;;;;;;1.70;1.60;;;15.10;99.90;;;;;;5053231;28;20181;-72
2023/06/11 02:41:34;;;;;;;1.97;1.87;;;15.10;99.90;;;;;;5053151;28;20205;-72
2023/06/11 02:44:00;;;;;;;2.53;2.43;;;15.10;99.90;;;;;;5053292;28;20171;-74
2023/06/11 02:46:26;;;;;;;2.40;2.20;;;15.00;99.90;;;;;;5052745;28;20199;-72
2023/06/11 02:48:52;;;;;;;2.47;2.27;;;;;;;;;;5053063;28;20189;-71
2023/06/11 02:51:17;;;;;;;2.07;1.87;;;15.00;99.90;;;;;;5053252;28;20383;-74
2023/06/11 02:53:44;;;;;;;1.90;1.37;;;15.00;99.90;;;;;;5053062;28;20506;-72
2023/06/11 02:56:09;;;;;;;2.10;2.00;;;15.00;99.90;;;;;;5052750;28;20646;-74
2023/06/11 02:58:35;;;;;;;1.80;1.70;;;15.00;99.90;;;;;;5053132;28;20495;-73
2023/06/11 03:01:01;;;;;;;1.57;1.47;;;15.00;99.90;;;;;;5053027;28;20543;-73
2023/06/11 03:03:26;;;;;;;2.73;1.90;;;14.90;99.90;;;;;;5052923;28;20176;-72
2023/06/11 03:05:52;;;;;;;1.73;1.40;;;15.00;99.90;;;;;;5052706;28;20194;-73
2023/06/11 03:08:17;;;;;;;2.53;1.83;;;15.00;99.90;;;;;;5052950;28;20181;-74
2023/06/11 03:10:43;;;;;;;3.00;2.30;;;15.00;99.90;;;;;;5051731;28;20538;-73
2023/06/11 03:13:09;;;;;;;1.43;1.33;;;15.10;99.90;;;;;;5052823;28;20190;-74
2023/06/11 03:15:34;;;;;;;2.50;2.40;;;15.00;99.90;;;;;;5052683;28;20240;-73
2023/06/11 03:18:00;;;;;;;1.57;0.90;;;14.90;99.90;;;;;;5052782;28;20219;-73
2023/06/11 03:20:25;;;;;;;2.70;1.87;;;14.90;99.90;;;;;;5052826;28;20170;-72
2023/06/11 03:22:51;;;;;;;1.93;1.73;;;14.90;99.90;;;;;;5052885;28;20239;-71
2023/06/11 03:25:17;;;;;;;1.13;1.00;;;14.90;99.90;;;;;;5052690;28;20218;-74
2023/06/11 03:27:43;;;;;;;1.83;1.20;;;14.90;99.90;;;;;;5052607;28;20178;-72
2023/06/11 03:30:10;;;;;;;1.93;1.80;;;14.80;99.90;;;;;;5054808;28;20504;-73
2023/06/11 03:32:35;;;;;;;1.50;1.20;;;14.70;99.90;;;;;;5056228;28;20162;-72
2023/06/11 03:35:01;;;;;;;10.63;4.47;;;14.50;99.90;;;;;;5056035;28;20467;-74
2023/06/11 03:37:26;;;;;;;1.50;1.40;;;14.60;99.90;;;;;;5056066;28;20624;-74
2023/06/11 03:39:52;;;;;;;0.97;0.97;;;14.60;99.90;;;;;;5056107;28;20164;-74
2023/06/11 03:42:18;;;;;;;3.53;2.93;;;14.60;99.90;;;;;;5056142;28;20203;-72
2023/06/11 03:44:43;;;;;;;4.37;3.93;;;14.60;99.90;;;;;;5056098;28;20170;-74
2023/06/11 03:47:09;;;;;;;1.40;1.37;;;14.70;99.90;;;;;;5055337;28;20184;-74
2023/06/11 03:49:34;;;;;;;1.53;1.30;;;14.80;99.90;;;;;;5055729;28;20182;-72
2023/06/11 03:52:00;;;;;;;3.40;2.40;;;14.80;99.90;;;;;;5056050;28;20174;-74
2023/06/11 03:54:26;;;;;;;1.53;1.43;;;14.70;99.90;;;;;;5055710;28;20171;-72
2023/06/11 03:56:52;;;;;;;2.43;1.80;;;14.60;99.90;;;;;;5055496;28;20244;-71
2023/06/11 03:59:17;;;;;;;2.53;2.27;;;14.60;99.90;;;;;;5056152;28;20742;-74
2023/06/11 04:01:43;;;;;;;1.37;1.27;;;14.50;99.90;;;;;;5055614;28;20207;-72
2023/06/11 04:04:08;;;;;;;2.83;2.63;;;14.40;99.90;;;;;;5055763;28;20695;-74
2023/06/11 04:06:42;;;;;;;1.93;1.83;;;14.50;99.90;;;;;;5055344;28;20192;-74
2023/06/11 04:09:08;;;;;;;2.13;1.90;;;14.50;99.90;;;;;;5055692;28;20244;-72
2023/06/11 04:11:34;;;;;;;1.13;1.13;;;14.50;99.90;;;;;;5055526;28;20406;-71
2023/06/11 04:13:59;;;;;;;2.03;1.70;;;14.50;99.90;;;;;;5055503;28;20458;-72
2023/06/11 04:16:25;;;;;;;2.53;2.10;;;14.60;99.90;;;;;;5055174;28;20830;-71
2023/06/11 04:18:52;;;;;;;1.90;1.37;;;14.70;99.90;;;;;;5055500;28;20224;-74
2023/06/11 04:21:18;;;;;;;1.47;1.33;;;14.80;99.90;;;;;;5055455;28;20509;-73
2023/06/11 04:23:44;;;;;;;3.50;2.37;;;14.90;99.90;;;;;;5055213;28;20770;-73
2023/06/11 04:26:10;;;;;;;2.97;2.87;;;15.00;99.90;;;;;;5055070;28;20424;-74
2023/06/11 04:28:36;;;;;;;5.70;2.50;;;15.20;99.90;;;;;;5055419;28;20403;-74
2023/06/11 04:31:06;;;;;;;3.00;2.83;;;15.60;99.90;;;;;;5055219;28;20889;-73
2023/06/11 04:33:32;;;;;;;3.03;2.83;;;16.30;99.90;;;;;;5055224;28;20409;-73
2023/06/11 04:36:00;;;;;;;1.13;0.90;;;16.90;99.90;;;;;;5054740;28;20425;-73
2023/06/11 04:38:28;;;;;;;1.37;1.27;;;17.20;99.90;;;;;;5054956;28;20487;-72
2023/06/11 04:40:55;;;;;;;1.60;1.50;;;17.40;99.90;;;;;;5054562;28;20884;-73
2023/06/11 04:43:22;;;;;;;1.53;0.90;;;17.60;99.90;;;;;;5055158;28;20407;-74
2023/06/11 04:45:49;;;;;;;1.00;0.80;;;17.70;99.90;;;;;;5054688;28;20429;-72
2023/06/11 04:48:20;;;;;;;2.53;2.33;;;17.70;99.90;;;;;;5054860;28;20894;-75
2023/06/11 04:50:46;;;;;;;1.23;1.13;;;17.90;99.90;;;;;;5054971;28;20405;-73
2023/06/11 04:53:12;;;;;;;2.53;1.10;;;18.10;99.90;;;;;;5054725;28;20441;-72
2023/06/11 04:55:39;;;;;;;1.37;1.20;;;18.30;99.90;;;;;;5054760;28;20927;-73
2023/06/11 04:58:05;;;;;;;6.93;3.13;;;18.40;99.90;;;;;;5054840;28;20443;-71
2023/06/11 05:00:30;;;;;;;1.60;1.50;;;18.40;99.90;;;;;;5054506;28;20407;-73
2023/06/11 05:02:56;;;;;;;1.80;1.70;;;18.50;99.90;;;;;;5054602;28;20733;-74
2023/06/11 05:05:22;;;;;;;1.17;1.10;;;18.50;99.90;;;;;;5054326;28;20197;-74
2023/06/11 05:07:47;;;;;;;2.57;2.37;;;18.50;99.90;;;;;;5054462;28;20178;-75
2023/06/11 05:10:15;;;;;;;2.43;2.33;;;18.50;99.90;;;;;;5054358;28;20173;-74
2023/06/11 05:12:40;;;;;;;1.60;1.50;;;18.60;99.90;;;;;;5054409;28;20513;-72
2023/06/11 05:15:07;;;;;;;1.73;1.70;;;18.90;99.90;;;;;;5054286;28;20446;-73
2023/06/11 05:17:32;;;;;;;1.53;1.50;;;19.10;99.70;;;;;;5054050;28;20179;-73
2023/06/11 05:19:58;;;;;;;2.10;2.00;;;19.30;99.50;;;;;;5054320;28;20412;-73
2023/06/11 05:22:24;;;;;;;1.57;1.40;;;19.50;99.60;;;;;;5054312;28;20210;-72
2023/06/11 05:24:50;;;;;;;1.70;1.60;;;19.40;99.90;;;;;;5054389;28;20173;-72
2023/06/11 05:27:15;;;;;;;1.67;1.57;;;19.50;99.10;;;;;;5054056;28;20884;-74
2023/06/11 05:29:41;;;;;;;1.33;1.33;;;19.60;99.10;;;;;;5054259;28;20181;-72
2023/06/11 05:32:08;;;;;;;2.73;2.53;;;19.60;99.10;;;;;;5054095;28;20187;-74
2023/06/11 05:34:34;;;;;;;0.97;0.97;;;19.40;99.90;;;;;;5054015;28;20177;-74
2023/06/11 05:37:00;;;;;;;1.80;1.70;;;19.60;98.50;;;;;;5053824;28;20422;-72
2023/06/11 05:39:26;;;;;;;2.30;1.03;;;19.50;97.30;;;;;;5054123;28;20784;-74
2023/06/11 05:41:52;;;;;;;0.70;0.70;;;19.70;98.20;;;;;;5053954;28;20440;-74
2023/06/11 05:44:17;;;;;;;2.30;2.10;;;19.90;99.30;;;;;;5053946;28;20649;-72
2023/06/11 05:46:43;;;;;;;2.90;2.33;;;20.10;98.30;;;;;;5053511;28;20198;-74
2023/06/11 05:49:09;;;;;;;1.50;1.10;;;20.30;97.20;;;;;;5053538;28;20199;-72
2023/06/11 05:51:35;;;;;;;0.83;0.80;;;20.50;96.60;;;;;;5053191;28;20623;-74
2023/06/11 05:54:01;;;;;;;1.00;1.00;;;20.60;97.10;;;;;;5053410;28;20170;-73
2023/06/11 05:56:27;;;;;;;1.03;1.03;;;20.60;95.80;;;;;;5053382;28;20439;-76
2023/06/11 05:58:52;;;;;;;1.90;1.80;;;20.70;93.80;;;;;;5053814;28;20498;-72
2023/06/11 06:01:18;;;;;;;1.70;1.37;;;20.70;94.70;;;;;;5053624;28;20230;-74
2023/06/11 06:03:44;;;;;;;1.17;1.07;;;20.80;92.90;;;;;;5053707;28;20543;-74
2023/06/11 06:06:09;;;;;;;1.93;1.83;;;21.00;93.40;;;;;;5053236;28;20274;-74
2023/06/11 06:08:35;;;;;;;0.90;0.90;;;21.50;93.00;;;;;;5053722;28;20169;-74
2023/06/11 06:11:01;;;;;;;2.10;1.30;;;22.60;93.60;;;;;;5052254;28;20185;-75
2023/06/11 06:13:27;;;;;;;1.17;1.07;;;23.60;91.20;;;;;;5053796;28;20412;-72
2023/06/11 06:15:53;;;;;;;1.23;1.07;;;24.50;84.20;;;;;;5053278;28;20569;-72
2023/06/11 06:18:18;;;;;;;4.93;1.70;;;25.50;79.30;;;;;;5053492;28;20507;-76
2023/06/11 06:20:44;;;;;;;0.87;0.87;;;26.40;78.50;;;;;;5053385;28;20178;-73
2023/06/11 06:23:10;;;;;;;1.90;1.47;;;27.60;72.60;;;;;;5053299;28;20202;-76
2023/06/11 06:25:37;;;;;;;1.53;1.43;;;29.20;65.70;;;;;;5053056;28;20578;-72
2023/06/11 06:28:05;;;;;;;1.30;1.30;;;30.20;60.30;;;;;;5053422;28;20903;-73
2023/06/11 06:30:32;;;;;;;0.70;0.67;;;31.50;56.90;;;;;;5053382;28;20412;-71
2023/06/11 06:32:58;;;;;;;1.07;1.07;;;32.30;53.00;;;;;;5053258;28;20764;-71
2023/06/11 06:35:24;;;;;;;1.30;1.00;;;32.60;50.70;;;;;;5052972;28;20568;-73
2023/06/11 06:37:50;;;;;;;0.87;0.87;;;32.20;49.80;;;;;;5053442;28;20492;-70
2023/06/11 06:40:15;;;;;;;1.80;1.70;;;32.40;49.70;;;;;;5053307;28;20185;-73
2023/06/11 06:42:41;;;;;;;1.77;1.67;;;31.30;49.20;;;;;;5053247;28;20563;-72
2023/06/11 06:45:07;;;;;;;1.20;1.20;;;30.20;51.10;;;;;;5053249;28;20217;-72
2023/06/11 06:47:33;;;;;;;0.93;0.93;;;29.60;52.10;;;;;;5052935;28;20270;-71
2023/06/11 06:49:58;;;;;;;0.87;0.87;;;29.40;53.90;;;;;;5052964;28;20452;-73
2023/06/11 06:52:24;;;;;;;1.67;1.57;;;29.50;53.60;;;;;;5053113;28;20253;-73
2023/06/11 06:54:51;;;;;;;2.10;1.90;;;29.80;55.20;;;;;;5053088;28;20182;-70
2023/06/11 06:57:17;;;;;;;1.23;1.10;;;30.70;51.90;;;;;;5052978;28;20663;-73
2023/06/11 06:59:43;;;;;;;1.90;1.70;;;31.00;52.00;;;;;;5053070;28;20491;-73
2023/06/11 07:02:09;;;;;;;1.80;1.30;;;31.50;50.80;;;;;;5052852;28;20559;-73
2023/06/11 07:04:35;;;;;;;1.40;1.30;;;31.60;50.10;;;;;;5055738;28;20401;-73
2023/06/11 07:07:00;;;;;;;1.33;1.13;;;31.40;50.10;;;;;;5056637;28;20182;-70
2023/06/11 07:09:26;;;;;;;1.43;0.70;;;30.50;49.70;;;;;;5056831;28;20692;-70
2023/06/11 07:11:52;;;;;;;0.93;0.90;;;29.90;52.10;;;;;;5056843;28;20216;-71
2023/06/11 07:14:19;;;;;;;0.80;0.80;;;29.50;52.80;;;;;;5056740;28;20176;-71
2023/06/11 07:16:44;;;;;;;1.43;1.33;;;29.30;53.10;;;;;;5056068;28;20467;-72
2023/06/11 07:19:10;;;;;;;1.10;1.00;;;29.00;53.60;;;;;;5056462;28;20440;-74
2023/06/11 07:21:36;;;;;;;1.00;0.90;;;28.80;53.40;;;;;;5056474;28;20202;-73
2023/06/11 07:24:07;;;;;;;1.10;0.93;;;28.50;53.90;;;;;;5056530;28;20170;-70
2023/06/11 07:26:33;;;;;;;1.30;1.30;;;27.60;54.80;;;;;;5056262;28;20407;-72
2023/06/11 07:28:59;;;;;;;0.73;0.73;;;27.20;55.60;;;;;;5056502;28;20409;-73
2023/06/11 07:31:25;;;;;;;1.10;1.00;;;27.30;55.80;;;;;;5056264;28;20758;-70
2023/06/11 07:33:50;;;;;;;1.50;1.27;;;27.40;56.40;;;;;;5056557;28;20253;-70
2023/06/11 07:36:16;;;;;;;1.40;1.13;;;27.60;55.00;;;;;;5055883;28;20844;-73
2023/06/11 07:38:43;;;;;;;1.20;1.07;;;27.60;55.40;;;;;;5056397;28;20201;-72
2023/06/11 07:41:10;;;;;;;1.07;0.93;;;28.10;55.50;;;;;;5056173;28;20170;-73
2023/06/11 07:43:36;;;;;;;1.07;0.90;;;28.30;54.60;;;;;;5056180;28;20810;-72
2023/06/11 07:46:03;;;;;;;1.00;1.00;;;28.80;54.40;;;;;;5055952;28;20425;-73
2023/06/11 07:48:29;;;;;;;0.70;0.67;;;29.50;53.80;;;;;;5056031;28;20189;-72
2023/06/11 07:50:55;;;;;;;1.20;1.10;;;30.40;51.50;;;;;;5056033;28;20419;-73
2023/06/11 07:53:21;;;;;;;1.33;1.00;;;31.00;49.70;;;;;;5056028;28;20409;-72
2023/06/11 07:55:49;;;;;;;0.83;0.83;;;31.40;47.80;;;;;;5055660;28;20622;-73
2023/06/11 07:58:15;;;;;;;1.33;1.23;;;31.90;47.80;;;;;;5055928;28;20885;-72
2023/06/11 08:00:41;;;;;;;0.80;0.70;;;32.00;46.30;;;;;;5055955;28;20413;-72
2023/06/11 08:03:08;;;;;;;1.33;1.13;;;33.10;47.30;;;;;;5055639;28;20495;-72
2023/06/11 08:05:34;;;;;;;0.97;0.87;;;33.60;45.20;;;;;;5055530;28;20429;-72
2023/06/11 08:07:59;;;;;;;1.37;1.27;;;34.70;44.80;;;;;;5054476;28;20752;-72
2023/06/11 08:10:25;;;;;;;0.87;0.87;;;35.30;42.50;;;;;;5055669;28;20171;-71
2023/06/11 08:12:51;;;;;;;1.50;0.87;;;36.10;41.40;;;;;;5055695;28;20877;-71
2023/06/11 08:15:17;;;;;;;0.60;0.60;;;36.00;41.60;;;;;;5054556;28;20693;-70
2023/06/11 08:17:43;;;;;;;1.57;0.90;;;36.30;40.60;;;;;;5055362;28;20558;-72
2023/06/11 08:20:09;;;;;;;1.10;0.90;;;36.50;39.90;;;;;;5055578;28;20424;-72
2023/06/11 08:22:35;;;;;;;0.80;0.80;;;36.60;39.90;;;;;;5055406;28;20312;-72
2023/06/11 08:25:01;;;;;;;1.57;1.00;;;36.70;40.30;;;;;;5055365;28;20468;-73
2023/06/11 08:27:26;;;;;;;1.50;1.40;;;36.80;38.70;;;;;;5055050;28;20182;-71
2023/06/11 08:29:52;;;;;;;1.10;1.00;;;36.50;37.90;;;;;;5055218;28;20174;-71
2023/06/11 08:32:17;;;;;;;2.10;1.53;;;36.30;38.30;;;;;;5055069;28;20180;-70
2023/06/11 08:34:43;;;;;;;1.00;1.00;;;35.40;46.60;;;;;;5055151;28;20517;-73
2023/06/11 08:37:09;;;;;;;0.93;0.80;;;35.50;39.90;;;;;;5055097;28;20182;-73
2023/06/11 08:39:35;;;;;;;1.00;1.00;;;35.50;40.80;;;;;;5055224;28;20690;-72
2023/06/11 08:42:00;;;;;;;1.17;1.00;;;35.70;38.80;;;;;;5054933;28;20194;-71
2023/06/11 08:44:27;;;;;;;0.80;0.80;;;36.30;38.40;;;;;;5054878;28;20415;-71
2023/06/11 08:46:55;;;;;;;1.80;1.00;;;36.90;37.90;;;;;;5054466;28;20190;-73
2023/06/11 08:49:22;;;;;;;0.70;0.70;;;37.20;37.70;;;;;;5053400;28;20448;-71
2023/06/11 08:51:49;;;;;;;0.87;0.87;;;37.60;35.10;;;;;;5054964;28;20901;-74
2023/06/11 08:54:16;;;;;;;0.70;0.70;;;37.00;36.30;;;;;;5054992;28;20417;-72
2023/06/11 08:56:43;;;;;;;1.30;0.90;;;36.30;37.30;;;;;;5054458;28;20432;-74
2023/06/11 08:59:09;;;;;;;1.07;0.97;;;36.60;39.40;;;;;;5054617;28;20404;-73
2023/06/11 09:01:34;;;;;;;0.93;0.93;;;37.20;36.40;;;;;;5054808;28;20940;-73
2023/06/11 09:04:00;;;;;;;0.87;0.80;;;36.20;36.40;;;;;;5054632;28;20654;-73
2023/06/11 09:06:28;;;;;;;0.83;0.80;;;35.60;39.00;;;;;;5054267;28;20194;-71
2023/06/11 09:09:05;;;;;;;0.93;0.90;;;35.10;39.00;;;;;;5054604;28;20896;-71
2023/06/11 09:11:38;;;;;;;0.80;0.60;;;34.60;37.60;;;;;;5054635;28;20499;-73
2023/06/11 09:14:06;;;;;;;1.07;1.00;;;34.80;37.80;;;;;;5054581;28;20484;-73
2023/06/11 09:16:39;;;;;;;0.90;0.90;;;34.60;39.50;;;;;;5054030;28;20436;-73
2023/06/11 09:19:04;;;;;;;0.80;0.70;;;33.60;39.70;;;;;;5054645;28;20407;-71
2023/06/11 09:21:30;;;;;;;1.40;1.30;;;32.20;44.70;;;;;;5054138;28;20448;-72
2023/06/11 09:24:09;;;;;;;0.73;0.63;;;32.70;41.70;;;;;;5054632;28;20528;-71
2023/06/11 09:26:34;;;;;;;0.90;0.90;;;33.10;42.70;;;;;;5053878;28;20284;-71
2023/06/11 09:29:00;;;;;;;1.07;1.00;;;33.40;41.50;;;;;;5054235;28;20917;-71
2023/06/11 09:31:26;;;;;;;1.10;0.93;;;34.30;40.60;;;;;;5054144;28;20174;-71
2023/06/11 09:33:52;;;;;;;1.03;0.93;;;34.90;40.40;;;;;;5054158;28;20735;-74
2023/06/11 09:36:18;;;;;;;0.90;0.90;;;34.70;38.40;;;;;;5053754;28;20614;-71
2023/06/11 09:38:47;;;;;;;0.77;0.77;;;34.30;40.00;;;;;;5053873;28;20495;-70
2023/06/11 09:41:13;;;;;;;1.13;1.03;;;34.00;42.00;;;;;;5053777;28;20677;-74
2023/06/11 09:43:39;;;;;;;1.20;1.10;;;34.40;40.30;;;;;;5053935;28;20428;-71
2023/06/11 09:46:07;;;;;;;1.10;0.93;;;33.60;41.50;;;;;;5053635;28;20190;-74
2023/06/11 09:48:33;;;;;;;1.03;0.80;;;32.30;42.90;;;;;;5053702;28;20217;-71
2023/06/11 09:51:00;;;;;;;1.20;0.97;;;31.10;44.70;;;;;;5053690;28;20903;-73
2023/06/11 09:53:28;;;;;;;1.03;0.97;;;30.20;44.40;;;;;;5053761;28;20499;-71
2023/06/11 09:55:53;;;;;;;0.70;0.70;;;29.60;45.30;;;;;;5053407;28;20853;-71
2023/06/11 09:58:22;;;;;;;1.43;1.33;;;29.90;46.50;;;;;;5053807;28;20443;-73
2023/06/11 10:00:58;;;;;;;1.63;1.53;;;31.00;46.80;;;;;;5053810;28;20545;-72
2023/06/11 10:03:24;;;;;;;1.30;1.17;;;32.00;45.40;;;;;;5053680;28;20457;-74
2023/06/11 10:05:50;;;;;;;1.10;1.00;;;32.50;44.40;;;;;;5053465;28;20429;-72
2023/06/11 10:08:20;;;;;;;1.13;1.03;;;32.50;42.20;;;;;;5053555;28;20833;-70
2023/06/11 10:10:51;;;;;;;1.63;1.53;;;31.00;42.90;;;;;;5053622;28;20166;-74
2023/06/11 10:13:37;;;;;;;1.60;1.00;;;29.90;48.80;;;;;;5053739;28;20412;-70
2023/06/11 10:16:08;;;;;;;1.43;1.20;;;29.90;49.10;;;;;;5053208;28;20439;-72
2023/06/11 10:18:34;;;;;;;0.80;0.80;;;29.60;47.20;;;;;;5053847;28;20409;-70
2023/06/11 10:21:01;;;;;;;1.13;1.03;;;29.20;49.30;;;;;;5053620;28;20799;-73
2023/06/11 10:23:38;;;;;;;1.33;0.73;;;29.30;51.30;;;;;;5053425;28;20206;-73
2023/06/11 10:26:05;;;;;;;0.83;0.83;;;29.60;47.80;;;;;;5053022;28;20509;-72
2023/06/11 10:28:41;;;;;;;1.00;0.90;;;29.30;49.20;;;;;;5053263;28;20408;-74
2023/06/11 10:31:06;;;;;;;1.10;1.00;;;28.90;47.80;;;;;;5053299;28;20404;-70
2023/06/11 10:33:45;;;;;;;1.30;1.00;;;29.00;49.80;;;;;;5053505;28;20761;-73
2023/06/11 10:36:26;;;;;;;1.30;1.20;;;29.80;48.70;;;;;;5052970;28;20570;-72
2023/06/11 10:39:03;;;;;;;0.87;0.70;;;29.90;46.90;;;;;;5054976;28;20404;-73
2023/06/11 10:41:32;;;;;;;1.00;0.90;;;29.90;47.70;;;;;;5057321;28;20454;-70
2023/06/11 10:43:58;;;;;;;1.30;1.20;;;29.50;46.00;;;;;;5057448;28;20404;-73
2023/06/11 10:46:23;;;;;;;1.00;0.90;;;29.10;50.40;;;;;;5056863;28;20522;-73
2023/06/11 10:48:54;;;;;;;0.80;0.70;;;28.60;49.00;;;;;;5057107;28;20194;-73
2023/06/11 10:51:21;;;;;;;0.70;0.70;;;28.80;51.20;;;;;;5057229;28;20935;-71
2023/06/11 10:53:55;;;;;;;0.83;0.60;;;28.40;49.10;;;;;;5057026;28;20920;-71
2023/06/11 10:56:21;;;;;;;0.80;0.80;;;28.00;49.00;;;;;;5056935;28;20420;-72
2023/06/11 10:58:50;;;;;;;1.10;1.00;;;28.00;49.30;;;;;;5057106;28;20466;-71
2023/06/11 11:01:20;;;;;;;1.07;1.00;;;28.00;53.10;;;;;;5057301;28;20413;-72
2023/06/11 11:03:48;;;;;;;1.30;0.87;;;28.20;50.60;;;;;;5057004;28;20396;-73
2023/06/11 11:06:28;;;;;;;1.00;0.90;;;28.40;50.80;;;;;;5056537;28;20827;-74
2023/06/11 11:08:57;;;;;;;1.13;0.97;;;28.60;50.80;;;;;;5056859;28;20396;-73
2023/06/11 11:11:24;;;;;;;1.30;1.23;;;28.30;49.70;;;;;;5056821;28;20411;-71
2023/06/11 11:13:50;;;;;;;1.30;1.00;;;27.90;51.80;;;;;;5056815;28;20751;-70
2023/06/11 11:16:20;;;;;;;0.63;0.63;;;27.40;50.90;;;;;;5056356;28;20428;-70
2023/06/11 11:18:49;;;;;;;0.97;0.97;;;26.90;52.80;;;;;;5056703;28;20837;-73
2023/06/11 11:21:15;;;;;;;2.50;1.23;;;27.10;57.00;;;;;;5056515;28;20438;-73
2023/06/11 11:23:42;;;;;;;0.57;0.50;;;27.30;52.10;;;;;;5056564;28;20962;-72
2023/06/11 11:26:07;;;;;;;1.17;0.60;;;27.50;54.50;;;;;;5056159;28;20190;-71
2023/06/11 11:28:34;;;;;;;1.43;1.00;;;27.70;52.40;;;;;;5056454;28;20453;-72
2023/06/11 11:31:00;;;;;;;1.53;1.37;;;27.80;50.80;;;;;;5056524;28;20408;-70
2023/06/11 11:33:27;;;;;;;0.80;0.80;;;27.40;49.70;;;;;;5056355;28;20394;-70
2023/06/11 11:35:54;;;;;;;0.93;0.70;;;26.80;50.60;;;;;;5056131;28;20429;-70
2023/06/11 11:38:21;;;;;;;0.70;0.70;;;26.60;52.70;;;;;;5056404;28;20388;-72
2023/06/11 11:40:56;;;;;;;0.97;0.67;;;26.40;51.80;;;;;;5056100;28;20416;-72
2023/06/11 11:43:22;;;;;;;1.10;1.03;;;26.40;52.20;;;;;;5056231;28;20455;-72
2023/06/11 11:45:48;;;;;;;0.50;0.50;;;26.00;54.20;;;;;;5055826;28;20765;-71
2023/06/11 11:48:15;;;;;;;2.10;1.03;;;25.70;52.50;;;;;;5055895;28;20425;-72
2023/06/11 11:50:41;;;;;;;0.70;0.70;;;25.60;54.80;;;;;;5054937;28;20425;-72
2023/06/11 11:53:09;;;;;;;1.53;0.90;;;25.80;54.00;;;;;;5056012;28;20379;-71
2023/06/11 11:55:45;;;;;;;1.30;0.67;;;26.10;54.10;;;;;;5055559;28;20395;-73
2023/06/11 11:58:15;;;;;;;1.33;1.17;;;26.50;54.50;;;;;;5055834;28;20408;-70
2023/06/11 12:00:56;;;;;;;0.77;0.77;;;26.90;51.60;;;;;;5055828;28;20436;-70
2023/06/11 12:03:22;;;;;;;0.53;0.50;;;27.10;50.40;;;;;;5055890;28;20464;-72
2023/06/11 12:05:59;;;;;;;1.80;1.43;;;27.10;51.70;;;;;;5055614;28;20436;-71
2023/06/11 12:08:26;;;;;;;1.10;1.00;;;26.50;51.10;;;;;;5056108;28;20379;-71
2023/06/11 12:10:51;;;;;;;1.43;1.20;;;26.10;52.50;;;;;;5055639;28;20425;-71
2023/06/11 12:13:17;;;;;;;0.77;0.77;;;25.80;53.20;;;;;;5055639;28;20380;-74
2023/06/11 12:15:43;;;;;;;0.90;0.90;;;25.80;53.50;;;;;;5055517;28;20599;-71
2023/06/11 12:18:08;;;;;;;0.77;0.77;;;26.10;54.90;;;;;;5055642;28;20174;-71
2023/06/11 12:20:34;;;;;;;1.60;1.33;;;26.40;54.80;;;;;;5055611;28;20175;-71
2023/06/11 12:22:59;;;;;;;0.67;0.67;;;26.60;52.80;;;;;;5055705;28;20704;-70
2023/06/11 12:25:30;;;;;;;1.10;1.00;;;26.60;52.00;;;;;;5055093;28;20253;-73
2023/06/11 12:27:55;;;;;;;0.70;0.67;;;26.60;49.40;;;;;;5055422;28;20244;-74
2023/06/11 12:30:21;;;;;;;0.57;0.57;;;26.70;50.90;;;;;;5055420;28;20922;-77
2023/06/11 12:32:47;;;;;;;0.70;0.70;;;26.90;51.30;;;;;;5055308;28;20174;-75
2023/06/11 12:35:13;;;;;;;0.63;0.63;;;26.80;49.90;;;;;;5055241;28;20190;-73
2023/06/11 12:37:39;;;;;;;1.57;1.47;;;26.50;48.90;;;;;;5054892;28;20753;-71
2023/06/11 12:40:05;;;;;;;0.90;0.90;;;26.50;51.40;;;;;;5055104;28;20733;-74
2023/06/11 12:42:33;;;;;;;1.50;0.67;;;26.60;49.70;;;;;;5054937;28;20599;-74
2023/06/11 12:45:02;;;;;;;2.87;0.97;;;26.60;48.60;;;;;;5054958;28;20425;-71
2023/06/11 12:47:28;;;;;;;2.70;1.33;;;26.70;49.00;;;;;;5054728;28;20490;-72